Cora, Missouri
Current Conditions -  °F | °C
As of 10:55 AM on Thursday 25 Dec 2014 (Local Time) from KIRK Reporting Station
Clear Clear  
Wind Chill: 35°   Ceiling: Unl
Heat Index: 43°   Visibility: 10mi
Dew Point: 31°   Wind: 18mph
Humidity: 62%   Direction: 190°S
Pressure: 29.87"   Gusts: 26mph
Location:  40.1663°N, 93.1629°W
Report Text: KIRK 251655Z AUTO 19016G23KT 10SM CLR 06/M01 A2987 RMK AO2 SLP124 T00611006
Loading
Personal Weather Stations






























Interactive Weather Map New forecast layout! Learn more

10-Day Weather Forecast

Advertisements
Track Severe Weather on mobile